sensor_id;sensor_type;location;lat;lon;timestamp;temperature;humidity
25440;DHT22;13365;52.208;5.488;2023-11-21T00:02:25;12.50;99.60
25440;DHT22;13365;52.208;5.488;2023-11-21T00:04:51;12.50;99.60
25440;DHT22;13365;52.208;5.488;2023-11-21T00:07:17;12.50;99.50
25440;DHT22;13365;52.208;5.488;2023-11-21T00:09:43;12.60;99.50
25440;DHT22;13365;52.208;5.488;2023-11-21T00:12:08;12.50;99.40
25440;DHT22;13365;52.208;5.488;2023-11-21T00:14:37;12.60;99.50
25440;DHT22;13365;52.208;5.488;2023-11-21T00:17:04;12.60;99.40
25440;DHT22;13365;52.208;5.488;2023-11-21T00:19:29;12.60;99.40
25440;DHT22;13365;52.208;5.488;2023-11-21T00:21:55;12.60;99.40
25440;DHT22;13365;52.208;5.488;2023-11-21T00:24:20;12.60;99.30
25440;DHT22;13365;52.208;5.488;2023-11-21T00:26:46;12.60;99.30
25440;DHT22;13365;52.208;5.488;2023-11-21T00:29:13;12.60;99.20
25440;DHT22;13365;52.208;5.488;2023-11-21T00:31:39;12.60;99.20
25440;DHT22;13365;52.208;5.488;2023-11-21T00:34:04;12.60;99.10
25440;DHT22;13365;52.208;5.488;2023-11-21T00:36:33;12.50;99.10
25440;DHT22;13365;52.208;5.488;2023-11-21T00:38:58;12.50;99.10
25440;DHT22;13365;52.208;5.488;2023-11-21T00:41:25;12.50;99.10
25440;DHT22;13365;52.208;5.488;2023-11-21T00:43:53;12.50;99.10
25440;DHT22;13365;52.208;5.488;2023-11-21T00:46:18;12.50;99.20
25440;DHT22;13365;52.208;5.488;2023-11-21T00:48:44;12.50;99.20
25440;DHT22;13365;52.208;5.488;2023-11-21T00:51:09;12.40;99.20
25440;DHT22;13365;52.208;5.488;2023-11-21T00:53:35;12.40;99.30
25440;DHT22;13365;52.208;5.488;2023-11-21T00:56:01;12.50;99.40
25440;DHT22;13365;52.208;5.488;2023-11-21T00:58:26;12.50;99.30
25440;DHT22;13365;52.208;5.488;2023-11-21T01:00:52;12.40;99.20
25440;DHT22;13365;52.208;5.488;2023-11-21T01:03:18;12.40;99.20
25440;DHT22;13365;52.208;5.488;2023-11-21T01:05:44;12.40;99.30
25440;DHT22;13365;52.208;5.488;2023-11-21T01:08:10;12.30;99.20
25440;DHT22;13365;52.208;5.488;2023-11-21T01:10:36;12.50;99.30
25440;DHT22;13365;52.208;5.488;2023-11-21T01:13:02;12.50;99.40
25440;DHT22;13365;52.208;5.488;2023-11-21T01:15:29;12.50;99.20
25440;DHT22;13365;52.208;5.488;2023-11-21T01:17:55;12.40;99.20
25440;DHT22;13365;52.208;5.488;2023-11-21T01:20:20;12.30;99.40
25440;DHT22;13365;52.208;5.488;2023-11-21T01:22:46;12.30;99.60
25440;DHT22;13365;52.208;5.488;2023-11-21T01:25:14;12.30;99.60
25440;DHT22;13365;52.208;5.488;2023-11-21T01:27:41;12.20;99.60
25440;DHT22;13365;52.208;5.488;2023-11-21T01:30:07;12.30;99.80
25440;DHT22;13365;52.208;5.488;2023-11-21T01:32:33;12.30;99.70
25440;DHT22;13365;52.208;5.488;2023-11-21T01:35:00;12.40;99.80
25440;DHT22;13365;52.208;5.488;2023-11-21T01:37:25;12.50;99.80
25440;DHT22;13365;52.208;5.488;2023-11-21T01:39:53;12.50;99.80
25440;DHT22;13365;52.208;5.488;2023-11-21T01:42:20;12.60;99.90
25440;DHT22;13365;52.208;5.488;2023-11-21T01:44:46;12.60;99.80
25440;DHT22;13365;52.208;5.488;2023-11-21T01:47:12;12.60;99.90
25440;DHT22;13365;52.208;5.488;2023-11-21T01:49:38;12.70;99.90
25440;DHT22;13365;52.208;5.488;2023-11-21T01:52:04;12.70;99.90
25440;DHT22;13365;52.208;5.488;2023-11-21T01:54:31;12.70;99.90
25440;DHT22;13365;52.208;5.488;2023-11-21T01:57:00;12.80;99.90
25440;DHT22;13365;52.208;5.488;2023-11-21T01:59:38;12.90;99.90
25440;DHT22;13365;52.208;5.488;2023-11-21T02:02:08;12.90;99.90
25440;DHT22;13365;52.208;5.488;2023-11-21T02:04:35;12.90;99.90
25440;DHT22;13365;52.208;5.488;2023-11-21T02:07:02;13.00;99.90
25440;DHT22;13365;52.208;5.488;2023-11-21T02:09:31;13.10;99.90
25440;DHT22;13365;52.208;5.488;2023-11-21T02:11:58;13.10;99.90
25440;DHT22;13365;52.208;5.488;2023-11-21T02:14:25;13.20;99.90
25440;DHT22;13365;52.208;5.488;2023-11-21T02:16:52;13.20;99.90
25440;DHT22;13365;52.208;5.488;2023-11-21T02:19:19;13.30;99.90
25440;DHT22;13365;52.208;5.488;2023-11-21T02:21:52;13.30;99.90
25440;DHT22;13365;52.208;5.488;2023-11-21T02:24:22;13.40;99.90
25440;DHT22;13365;52.208;5.488;2023-11-21T02:26:48;13.40;99.90
25440;DHT22;13365;52.208;5.488;2023-11-21T02:29:19;13.50;99.90
25440;DHT22;13365;52.208;5.488;2023-11-21T02:31:48;13.50;99.90
25440;DHT22;13365;52.208;5.488;2023-11-21T02:34:17;13.50;99.90
25440;DHT22;13365;52.208;5.488;2023-11-21T02:36:44;13.60;99.90
25440;DHT22;13365;52.208;5.488;2023-11-21T02:39:10;13.60;99.90
25440;DHT22;13365;52.208;5.488;2023-11-21T02:41:37;13.70;99.90
25440;DHT22;13365;52.208;5.488;2023-11-21T02:44:03;13.70;99.90
25440;DHT22;13365;52.208;5.488;2023-11-21T02:46:31;13.80;99.90
25440;DHT22;13365;52.208;5.488;2023-11-21T02:49:02;13.70;99.90
25440;DHT22;13365;52.208;5.488;2023-11-21T02:51:28;13.80;99.90
25440;DHT22;13365;52.208;5.488;2023-11-21T02:53:54;13.80;99.90
25440;DHT22;13365;52.208;5.488;2023-11-21T02:56:20;13.80;99.90
25440;DHT22;13365;52.208;5.488;2023-11-21T02:58:45;13.90;99.90
25440;DHT22;13365;52.208;5.488;2023-11-21T03:01:11;13.90;99.90
25440;DHT22;13365;52.208;5.488;2023-11-21T03:03:39;14.00;99.90
25440;DHT22;13365;52.208;5.488;2023-11-21T03:06:08;14.00;99.90
25440;DHT22;13365;52.208;5.488;2023-11-21T03:08:34;14.00;99.90
25440;DHT22;13365;52.208;5.488;2023-11-21T03:11:00;14.00;99.90
25440;DHT22;13365;52.208;5.488;2023-11-21T03:13:25;14.00;99.90
25440;DHT22;13365;52.208;5.488;2023-11-21T03:15:51;14.00;99.90
25440;DHT22;13365;52.208;5.488;2023-11-21T03:18:16;14.20;99.90
25440;DHT22;13365;52.208;5.488;2023-11-21T03:20:43;14.10;99.90
25440;DHT22;13365;52.208;5.488;2023-11-21T03:23:11;14.10;99.90
25440;DHT22;13365;52.208;5.488;2023-11-21T03:25:37;14.10;99.90
25440;DHT22;13365;52.208;5.488;2023-11-21T03:28:02;14.10;99.90
25440;DHT22;13365;52.208;5.488;2023-11-21T03:30:28;14.10;99.90
25440;DHT22;13365;52.208;5.488;2023-11-21T03:32:54;14.00;99.90
25440;DHT22;13365;52.208;5.488;2023-11-21T03:35:19;14.00;99.90
25440;DHT22;13365;52.208;5.488;2023-11-21T03:37:46;14.00;99.90
25440;DHT22;13365;52.208;5.488;2023-11-21T03:40:12;14.00;99.90
25440;DHT22;13365;52.208;5.488;2023-11-21T03:42:38;14.00;99.90
25440;DHT22;13365;52.208;5.488;2023-11-21T03:45:05;14.10;99.90
25440;DHT22;13365;52.208;5.488;2023-11-21T03:47:30;14.20;99.90
25440;DHT22;13365;52.208;5.488;2023-11-21T03:49:56;14.10;99.90
25440;DHT22;13365;52.208;5.488;2023-11-21T03:52:21;14.20;99.90
25440;DHT22;13365;52.208;5.488;2023-11-21T03:54:47;14.20;99.90
25440;DHT22;13365;52.208;5.488;2023-11-21T03:57:13;14.20;99.90
25440;DHT22;13365;52.208;5.488;2023-11-21T03:59:42;14.20;99.90
25440;DHT22;13365;52.208;5.488;2023-11-21T04:02:08;14.30;99.90
25440;DHT22;13365;52.208;5.488;2023-11-21T04:04:34;14.30;99.90
25440;DHT22;13365;52.208;5.488;2023-11-21T04:07:00;14.30;99.90
25440;DHT22;13365;52.208;5.488;2023-11-21T04:09:25;14.40;99.90
25440;DHT22;13365;52.208;5.488;2023-11-21T04:11:52;14.40;99.90
25440;DHT22;13365;52.208;5.488;2023-11-21T04:14:18;14.40;99.90
25440;DHT22;13365;52.208;5.488;2023-11-21T04:16:43;14.40;99.90
25440;DHT22;13365;52.208;5.488;2023-11-21T04:19:09;14.40;99.90
25440;DHT22;13365;52.208;5.488;2023-11-21T04:21:38;14.40;99.90
25440;DHT22;13365;52.208;5.488;2023-11-21T04:24:04;14.30;99.90
25440;DHT22;13365;52.208;5.488;2023-11-21T04:26:30;14.50;99.90
25440;DHT22;13365;52.208;5.488;2023-11-21T04:28:55;14.50;99.90
25440;DHT22;13365;52.208;5.488;2023-11-21T04:31:21;14.30;99.90
25440;DHT22;13365;52.208;5.488;2023-11-21T04:33:46;14.40;99.90
25440;DHT22;13365;52.208;5.488;2023-11-21T04:36:12;14.40;99.90
25440;DHT22;13365;52.208;5.488;2023-11-21T04:38:37;14.50;99.90
25440;DHT22;13365;52.208;5.488;2023-11-21T04:41:03;14.60;99.90
25440;DHT22;13365;52.208;5.488;2023-11-21T04:43:29;14.40;99.90
25440;DHT22;13365;52.208;5.488;2023-11-21T04:45:55;14.50;99.90
25440;DHT22;13365;52.208;5.488;2023-11-21T04:48:20;14.60;99.90
25440;DHT22;13365;52.208;5.488;2023-11-21T04:50:46;14.40;99.90
25440;DHT22;13365;52.208;5.488;2023-11-21T04:53:11;14.30;99.90
25440;DHT22;13365;52.208;5.488;2023-11-21T04:55:40;14.30;99.90
25440;DHT22;13365;52.208;5.488;2023-11-21T04:58:05;14.10;99.90
25440;DHT22;13365;52.208;5.488;2023-11-21T05:00:31;14.10;99.90
25440;DHT22;13365;52.208;5.488;2023-11-21T05:02:57;14.40;99.90
25440;DHT22;13365;52.208;5.488;2023-11-21T05:05:22;14.20;99.90
25440;DHT22;13365;52.208;5.488;2023-11-21T05:07:48;14.40;99.90
25440;DHT22;13365;52.208;5.488;2023-11-21T05:10:14;14.20;99.90
25440;DHT22;13365;52.208;5.488;2023-11-21T05:12:41;14.40;99.90
25440;DHT22;13365;52.208;5.488;2023-11-21T05:15:07;14.50;99.90
25440;DHT22;13365;52.208;5.488;2023-11-21T05:17:37;14.50;99.90
25440;DHT22;13365;52.208;5.488;2023-11-21T05:20:04;14.50;99.90
25440;DHT22;13365;52.208;5.488;2023-11-21T05:22:34;14.70;99.90
25440;DHT22;13365;52.208;5.488;2023-11-21T05:24:59;14.70;99.90
25440;DHT22;13365;52.208;5.488;2023-11-21T05:27:25;14.50;99.90
25440;DHT22;13365;52.208;5.488;2023-11-21T05:29:51;14.40;99.90
25440;DHT22;13365;52.208;5.488;2023-11-21T05:32:16;14.10;99.90
25440;DHT22;13365;52.208;5.488;2023-11-21T05:34:43;14.30;99.90
25440;DHT22;13365;52.208;5.488;2023-11-21T05:37:08;14.30;99.90
25440;DHT22;13365;52.208;5.488;2023-11-21T05:39:34;14.50;99.90
25440;DHT22;13365;52.208;5.488;2023-11-21T05:41:59;14.60;99.90
25440;DHT22;13365;52.208;5.488;2023-11-21T05:44:25;14.50;99.90
25440;DHT22;13365;52.208;5.488;2023-11-21T05:46:51;14.40;99.90
25440;DHT22;13365;52.208;5.488;2023-11-21T05:49:16;14.50;99.90
25440;DHT22;13365;52.208;5.488;2023-11-21T05:51:42;14.60;99.90
25440;DHT22;13365;52.208;5.488;2023-11-21T05:54:10;14.90;99.90
25440;DHT22;13365;52.208;5.488;2023-11-21T05:56:36;14.50;99.90
25440;DHT22;13365;52.208;5.488;2023-11-21T05:59:01;14.60;99.90
25440;DHT22;13365;52.208;5.488;2023-11-21T06:01:28;14.50;99.90
25440;DHT22;13365;52.208;5.488;2023-11-21T06:03:54;14.40;99.90
25440;DHT22;13365;52.208;5.488;2023-11-21T06:06:21;14.30;99.90
25440;DHT22;13365;52.208;5.488;2023-11-21T06:08:48;14.50;99.90
25440;DHT22;13365;52.208;5.488;2023-11-21T06:11:14;14.50;99.90
25440;DHT22;13365;52.208;5.488;2023-11-21T06:13:39;14.40;99.90
25440;DHT22;13365;52.208;5.488;2023-11-21T06:16:05;14.30;99.90
25440;DHT22;13365;52.208;5.488;2023-11-21T06:18:31;14.40;99.90
25440;DHT22;13365;52.208;5.488;2023-11-21T06:20:56;14.40;99.90
25440;DHT22;13365;52.208;5.488;2023-11-21T06:23:22;14.50;99.90
25440;DHT22;13365;52.208;5.488;2023-11-21T06:25:47;15.00;99.90
25440;DHT22;13365;52.208;5.488;2023-11-21T06:28:13;15.00;99.90
25440;DHT22;13365;52.208;5.488;2023-11-21T06:30:42;14.60;99.90
25440;DHT22;13365;52.208;5.488;2023-11-21T06:33:09;14.80;99.90
25440;DHT22;13365;52.208;5.488;2023-11-21T06:35:35;14.80;99.90
25440;DHT22;13365;52.208;5.488;2023-11-21T06:38:00;14.80;99.90
25440;DHT22;13365;52.208;5.488;2023-11-21T06:40:26;14.80;99.90
25440;DHT22;13365;52.208;5.488;2023-11-21T06:42:52;14.70;99.90
25440;DHT22;13365;52.208;5.488;2023-11-21T06:45:17;14.60;99.90
25440;DHT22;13365;52.208;5.488;2023-11-21T06:47:43;14.80;99.90
25440;DHT22;13365;52.208;5.488;2023-11-21T06:50:09;14.80;99.90
25440;DHT22;13365;52.208;5.488;2023-11-21T06:52:34;14.90;99.90
25440;DHT22;13365;52.208;5.488;2023-11-21T06:55:01;14.80;99.90
25440;DHT22;13365;52.208;5.488;2023-11-21T06:57:26;15.10;99.90
25440;DHT22;13365;52.208;5.488;2023-11-21T06:59:52;15.00;99.90
25440;DHT22;13365;52.208;5.488;2023-11-21T07:02:18;14.90;99.90
25440;DHT22;13365;52.208;5.488;2023-11-21T07:04:46;14.80;99.90
25440;DHT22;13365;52.208;5.488;2023-11-21T07:07:12;15.00;99.90
25440;DHT22;13365;52.208;5.488;2023-11-21T07:09:38;15.00;99.90
25440;DHT22;13365;52.208;5.488;2023-11-21T07:12:04;15.20;99.90
25440;DHT22;13365;52.208;5.488;2023-11-21T07:14:35;15.00;99.90
25440;DHT22;13365;52.208;5.488;2023-11-21T07:17:01;15.00;99.90
25440;DHT22;13365;52.208;5.488;2023-11-21T07:19:26;15.10;99.90
25440;DHT22;13365;52.208;5.488;2023-11-21T07:21:52;15.00;99.90
25440;DHT22;13365;52.208;5.488;2023-11-21T07:24:18;15.20;99.90
25440;DHT22;13365;52.208;5.488;2023-11-21T07:26:43;15.10;99.90
25440;DHT22;13365;52.208;5.488;2023-11-21T07:29:09;15.10;99.90
25440;DHT22;13365;52.208;5.488;2023-11-21T07:31:34;15.20;99.90
25440;DHT22;13365;52.208;5.488;2023-11-21T07:34:00;15.20;99.90
25440;DHT22;13365;52.208;5.488;2023-11-21T07:36:26;15.30;99.90
25440;DHT22;13365;52.208;5.488;2023-11-21T07:38:52;15.50;99.90
25440;DHT22;13365;52.208;5.488;2023-11-21T07:41:18;15.60;99.90
25440;DHT22;13365;52.208;5.488;2023-11-21T07:43:47;15.70;99.90
25440;DHT22;13365;52.208;5.488;2023-11-21T07:46:13;15.70;99.90
25440;DHT22;13365;52.208;5.488;2023-11-21T07:48:39;15.80;99.90
25440;DHT22;13365;52.208;5.488;2023-11-21T07:51:05;15.90;99.90
25440;DHT22;13365;52.208;5.488;2023-11-21T07:53:32;16.00;99.90
25440;DHT22;13365;52.208;5.488;2023-11-21T07:55:58;15.90;99.90
25440;DHT22;13365;52.208;5.488;2023-11-21T07:58:24;15.90;99.90
25440;DHT22;13365;52.208;5.488;2023-11-21T08:00:50;16.00;99.90
25440;DHT22;13365;52.208;5.488;2023-11-21T08:03:16;16.10;99.90
25440;DHT22;13365;52.208;5.488;2023-11-21T08:05:42;16.20;99.90
25440;DHT22;13365;52.208;5.488;2023-11-21T08:08:08;16.30;99.90
25440;DHT22;13365;52.208;5.488;2023-11-21T08:10:34;16.20;99.90
25440;DHT22;13365;52.208;5.488;2023-11-21T08:13:01;16.30;99.90
25440;DHT22;13365;52.208;5.488;2023-11-21T08:15:27;16.40;99.90
25440;DHT22;13365;52.208;5.488;2023-11-21T08:17:53;16.40;99.90
25440;DHT22;13365;52.208;5.488;2023-11-21T08:20:19;16.40;99.90
25440;DHT22;13365;52.208;5.488;2023-11-21T08:22:45;16.40;99.90
25440;DHT22;13365;52.208;5.488;2023-11-21T08:25:13;16.30;99.90
25440;DHT22;13365;52.208;5.488;2023-11-21T08:27:38;16.10;99.90
25440;DHT22;13365;52.208;5.488;2023-11-21T08:30:04;16.00;99.90
25440;DHT22;13365;52.208;5.488;2023-11-21T08:32:30;16.00;99.90
25440;DHT22;13365;52.208;5.488;2023-11-21T08:34:57;15.80;99.90
25440;DHT22;13365;52.208;5.488;2023-11-21T08:37:23;15.70;99.90
25440;DHT22;13365;52.208;5.488;2023-11-21T08:39:49;15.80;99.90
25440;DHT22;13365;52.208;5.488;2023-11-21T08:42:15;15.70;99.90
25440;DHT22;13365;52.208;5.488;2023-11-21T08:44:40;15.50;99.90
25440;DHT22;13365;52.208;5.488;2023-11-21T08:47:06;15.10;99.90
25440;DHT22;13365;52.208;5.488;2023-11-21T08:49:32;15.00;99.90
25440;DHT22;13365;52.208;5.488;2023-11-21T08:51:58;15.00;99.90
25440;DHT22;13365;52.208;5.488;2023-11-21T08:54:28;14.90;99.90
25440;DHT22;13365;52.208;5.488;2023-11-21T08:56:54;14.70;99.90
25440;DHT22;13365;52.208;5.488;2023-11-21T08:59:20;14.70;99.90
25440;DHT22;13365;52.208;5.488;2023-11-21T09:01:46;14.40;99.90
25440;DHT22;13365;52.208;5.488;2023-11-21T09:04:12;14.40;99.90
25440;DHT22;13365;52.208;5.488;2023-11-21T09:06:39;14.40;99.90
25440;DHT22;13365;52.208;5.488;2023-11-21T09:09:05;14.70;99.90
25440;DHT22;13365;52.208;5.488;2023-11-21T09:11:34;14.70;99.90
25440;DHT22;13365;52.208;5.488;2023-11-21T09:14:01;15.00;99.90
25440;DHT22;13365;52.208;5.488;2023-11-21T09:16:26;15.00;99.90
25440;DHT22;13365;52.208;5.488;2023-11-21T09:18:52;15.20;99.90
25440;DHT22;13365;52.208;5.488;2023-11-21T09:21:17;15.30;99.90
25440;DHT22;13365;52.208;5.488;2023-11-21T09:23:44;15.30;99.90
25440;DHT22;13365;52.208;5.488;2023-11-21T09:26:10;15.30;99.90
25440;DHT22;13365;52.208;5.488;2023-11-21T09:28:35;15.20;99.90
25440;DHT22;13365;52.208;5.488;2023-11-21T09:31:03;15.30;99.90
25440;DHT22;13365;52.208;5.488;2023-11-21T09:33:30;15.20;99.90
25440;DHT22;13365;52.208;5.488;2023-11-21T09:35:57;15.20;99.90
25440;DHT22;13365;52.208;5.488;2023-11-21T09:38:23;15.10;99.90
25440;DHT22;13365;52.208;5.488;2023-11-21T09:40:48;15.00;99.90
25440;DHT22;13365;52.208;5.488;2023-11-21T09:43:16;14.90;99.90
25440;DHT22;13365;52.208;5.488;2023-11-21T09:45:48;14.80;99.90
25440;DHT22;13365;52.208;5.488;2023-11-21T09:48:20;14.80;99.90
25440;DHT22;13365;52.208;5.488;2023-11-21T09:50:47;15.10;99.90
25440;DHT22;13365;52.208;5.488;2023-11-21T09:53:17;15.30;99.90
25440;DHT22;13365;52.208;5.488;2023-11-21T09:55:45;15.00;99.90
25440;DHT22;13365;52.208;5.488;2023-11-21T09:58:12;14.80;99.90
25440;DHT22;13365;52.208;5.488;2023-11-21T10:00:46;14.80;99.90
25440;DHT22;13365;52.208;5.488;2023-11-21T10:03:11;14.70;99.90
25440;DHT22;13365;52.208;5.488;2023-11-21T10:05:38;14.80;99.90
25440;DHT22;13365;52.208;5.488;2023-11-21T10:08:07;15.00;99.90
25440;DHT22;13365;52.208;5.488;2023-11-21T10:10:33;15.10;99.90
25440;DHT22;13365;52.208;5.488;2023-11-21T10:13:02;15.00;99.90
25440;DHT22;13365;52.208;5.488;2023-11-21T10:15:33;14.70;99.90
25440;DHT22;13365;52.208;5.488;2023-11-21T10:18:01;14.30;99.90
25440;DHT22;13365;52.208;5.488;2023-11-21T10:20:28;13.90;99.90
25440;DHT22;13365;52.208;5.488;2023-11-21T10:22:54;13.90;99.90
25440;DHT22;13365;52.208;5.488;2023-11-21T10:25:22;13.90;99.90
25440;DHT22;13365;52.208;5.488;2023-11-21T10:27:49;14.00;99.90
25440;DHT22;13365;52.208;5.488;2023-11-21T10:30:17;13.90;99.90
25440;DHT22;13365;52.208;5.488;2023-11-21T10:32:43;14.10;99.90
25440;DHT22;13365;52.208;5.488;2023-11-21T10:35:10;14.20;99.90
25440;DHT22;13365;52.208;5.488;2023-11-21T10:37:37;14.20;99.90
25440;DHT22;13365;52.208;5.488;2023-11-21T10:40:08;14.10;99.90
25440;DHT22;13365;52.208;5.488;2023-11-21T10:42:41;13.90;99.90
25440;DHT22;13365;52.208;5.488;2023-11-21T10:45:08;13.90;99.90
25440;DHT22;13365;52.208;5.488;2023-11-21T10:47:41;14.00;99.90
25440;DHT22;13365;52.208;5.488;2023-11-21T10:50:07;14.00;99.90
25440;DHT22;13365;52.208;5.488;2023-11-21T10:52:45;14.00;99.90
25440;DHT22;13365;52.208;5.488;2023-11-21T10:55:19;14.00;99.90
25440;DHT22;13365;52.208;5.488;2023-11-21T10:57:52;13.90;99.90
25440;DHT22;13365;52.208;5.488;2023-11-21T11:00:19;13.80;99.90
25440;DHT22;13365;52.208;5.488;2023-11-21T11:02:51;13.70;99.90
25440;DHT22;13365;52.208;5.488;2023-11-21T11:05:20;13.50;99.90
25440;DHT22;13365;52.208;5.488;2023-11-21T11:07:48;13.40;99.90
25440;DHT22;13365;52.208;5.488;2023-11-21T11:10:22;13.40;99.90
25440;DHT22;13365;52.208;5.488;2023-11-21T11:12:51;13.60;99.90
25440;DHT22;13365;52.208;5.488;2023-11-21T11:15:18;13.70;99.90
25440;DHT22;13365;52.208;5.488;2023-11-21T11:17:45;13.60;99.90
25440;DHT22;13365;52.208;5.488;2023-11-21T11:20:12;13.40;99.90
25440;DHT22;13365;52.208;5.488;2023-11-21T11:22:43;13.40;99.90
25440;DHT22;13365;52.208;5.488;2023-11-21T11:28:10;13.50;99.90
25440;DHT22;13365;52.208;5.488;2023-11-21T11:31:21;13.60;99.90
25440;DHT22;13365;52.208;5.488;2023-11-21T11:34:14;13.90;99.90
25440;DHT22;13365;52.208;5.488;2023-11-21T11:36:55;14.10;99.90
25440;DHT22;13365;52.208;5.488;2023-11-21T11:39:37;14.10;99.90
25440;DHT22;13365;52.208;5.488;2023-11-21T11:42:08;14.20;99.90
25440;DHT22;13365;52.208;5.488;2023-11-21T11:44:46;14.30;99.90
25440;DHT22;13365;52.208;5.488;2023-11-21T11:47:29;14.20;99.90
25440;DHT22;13365;52.208;5.488;2023-11-21T11:50:11;13.80;99.90
25440;DHT22;13365;52.208;5.488;2023-11-21T11:52:55;13.70;99.90
25440;DHT22;13365;52.208;5.488;2023-11-21T11:55:23;13.90;99.90
25440;DHT22;13365;52.208;5.488;2023-11-21T11:57:53;14.10;99.90
25440;DHT22;13365;52.208;5.488;2023-11-21T12:00:33;14.10;99.90
25440;DHT22;13365;52.208;5.488;2023-11-21T12:03:03;14.30;99.90
25440;DHT22;13365;52.208;5.488;2023-11-21T12:05:31;14.40;99.90
25440;DHT22;13365;52.208;5.488;2023-11-21T12:08:00;14.10;99.90
25440;DHT22;13365;52.208;5.488;2023-11-21T12:10:31;13.80;99.90
25440;DHT22;13365;52.208;5.488;2023-11-21T12:12:58;13.70;99.90
25440;DHT22;13365;52.208;5.488;2023-11-21T12:15:24;13.70;99.90
25440;DHT22;13365;52.208;5.488;2023-11-21T12:17:51;13.60;99.90
25440;DHT22;13365;52.208;5.488;2023-11-21T12:20:23;13.60;99.90
25440;DHT22;13365;52.208;5.488;2023-11-21T12:22:50;13.40;99.90
25440;DHT22;13365;52.208;5.488;2023-11-21T12:25:18;13.60;99.90
25440;DHT22;13365;52.208;5.488;2023-11-21T12:27:53;13.80;99.90
25440;DHT22;13365;52.208;5.488;2023-11-21T12:30:23;14.00;99.90
25440;DHT22;13365;52.208;5.488;2023-11-21T12:32:51;14.00;99.90
25440;DHT22;13365;52.208;5.488;2023-11-21T12:35:18;14.00;99.90
25440;DHT22;13365;52.208;5.488;2023-11-21T12:37:45;14.20;99.90
25440;DHT22;13365;52.208;5.488;2023-11-21T12:40:12;14.10;99.90
25440;DHT22;13365;52.208;5.488;2023-11-21T12:42:41;14.00;99.90
25440;DHT22;13365;52.208;5.488;2023-11-21T12:45:08;13.90;99.90
25440;DHT22;13365;52.208;5.488;2023-11-21T12:47:37;13.80;99.90
25440;DHT22;13365;52.208;5.488;2023-11-21T12:50:03;13.60;99.90
25440;DHT22;13365;52.208;5.488;2023-11-21T12:52:30;13.40;99.90
25440;DHT22;13365;52.208;5.488;2023-11-21T12:54:56;13.40;99.90
25440;DHT22;13365;52.208;5.488;2023-11-21T12:57:26;13.70;99.90
25440;DHT22;13365;52.208;5.488;2023-11-21T12:59:57;13.70;99.90
25440;DHT22;13365;52.208;5.488;2023-11-21T13:02:25;13.90;99.90
25440;DHT22;13365;52.208;5.488;2023-11-21T13:04:54;14.00;99.90
25440;DHT22;13365;52.208;5.488;2023-11-21T13:07:23;14.00;99.90
25440;DHT22;13365;52.208;5.488;2023-11-21T13:09:52;13.90;99.90
25440;DHT22;13365;52.208;5.488;2023-11-21T13:12:24;14.00;99.90
25440;DHT22;13365;52.208;5.488;2023-11-21T13:14:50;14.10;99.90
25440;DHT22;13365;52.208;5.488;2023-11-21T13:17:15;13.90;99.90
25440;DHT22;13365;52.208;5.488;2023-11-21T13:19:41;13.60;99.90
25440;DHT22;13365;52.208;5.488;2023-11-21T13:22:07;14.00;99.90
25440;DHT22;13365;52.208;5.488;2023-11-21T13:24:36;14.40;99.90
25440;DHT22;13365;52.208;5.488;2023-11-21T13:27:02;14.50;99.90
25440;DHT22;13365;52.208;5.488;2023-11-21T13:29:28;14.30;99.90
25440;DHT22;13365;52.208;5.488;2023-11-21T13:31:55;13.90;99.90
25440;DHT22;13365;52.208;5.488;2023-11-21T13:34:20;13.90;99.90
25440;DHT22;13365;52.208;5.488;2023-11-21T13:36:47;13.70;99.90
25440;DHT22;13365;52.208;5.488;2023-11-21T13:39:13;13.60;99.90
25440;DHT22;13365;52.208;5.488;2023-11-21T13:41:41;13.60;99.90
25440;DHT22;13365;52.208;5.488;2023-11-21T13:44:07;13.50;99.90
25440;DHT22;13365;52.208;5.488;2023-11-21T13:46:41;13.20;99.90
25440;DHT22;13365;52.208;5.488;2023-11-21T13:49:07;13.00;99.90
25440;DHT22;13365;52.208;5.488;2023-11-21T13:51:36;12.80;99.90
25440;DHT22;13365;52.208;5.488;2023-11-21T13:54:13;12.80;99.90
25440;DHT22;13365;52.208;5.488;2023-11-21T13:56:39;12.80;99.90
25440;DHT22;13365;52.208;5.488;2023-11-21T13:59:06;12.80;99.90
25440;DHT22;13365;52.208;5.488;2023-11-21T14:01:48;12.70;99.90
25440;DHT22;13365;52.208;5.488;2023-11-21T14:04:25;13.10;99.90
25440;DHT22;13365;52.208;5.488;2023-11-21T14:07:08;13.40;99.90
25440;DHT22;13365;52.208;5.488;2023-11-21T14:09:50;13.40;99.90
25440;DHT22;13365;52.208;5.488;2023-11-21T14:12:17;13.30;99.90
25440;DHT22;13365;52.208;5.488;2023-11-21T14:14:43;13.40;99.90
25440;DHT22;13365;52.208;5.488;2023-11-21T14:17:10;13.60;99.90
25440;DHT22;13365;52.208;5.488;2023-11-21T14:19:36;13.60;99.90
25440;DHT22;13365;52.208;5.488;2023-11-21T14:22:05;13.40;99.90
25440;DHT22;13365;52.208;5.488;2023-11-21T14:24:33;13.40;99.90
25440;DHT22;13365;52.208;5.488;2023-11-21T14:26:58;13.40;99.90
25440;DHT22;13365;52.208;5.488;2023-11-21T14:29:24;13.30;99.90
25440;DHT22;13365;52.208;5.488;2023-11-21T14:31:51;12.90;99.90
25440;DHT22;13365;52.208;5.488;2023-11-21T14:34:20;12.80;99.90
25440;DHT22;13365;52.208;5.488;2023-11-21T14:36:46;12.90;99.90
25440;DHT22;13365;52.208;5.488;2023-11-21T14:39:12;13.00;99.90
25440;DHT22;13365;52.208;5.488;2023-11-21T14:41:52;12.70;99.90
25440;DHT22;13365;52.208;5.488;2023-11-21T14:44:19;12.40;99.90
25440;DHT22;13365;52.208;5.488;2023-11-21T14:46:46;12.20;99.90
25440;DHT22;13365;52.208;5.488;2023-11-21T14:49:14;11.90;99.90
25440;DHT22;13365;52.208;5.488;2023-11-21T14:51:47;11.60;99.90
25440;DHT22;13365;52.208;5.488;2023-11-21T14:54:27;11.70;99.90
25440;DHT22;13365;52.208;5.488;2023-11-21T14:57:10;11.60;99.90
25440;DHT22;13365;52.208;5.488;2023-11-21T14:59:44;11.70;99.90
25440;DHT22;13365;52.208;5.488;2023-11-21T15:02:16;11.80;99.90
25440;DHT22;13365;52.208;5.488;2023-11-21T15:04:44;11.80;99.90
25440;DHT22;13365;52.208;5.488;2023-11-21T15:07:10;11.80;99.90
25440;DHT22;13365;52.208;5.488;2023-11-21T15:09:38;11.80;99.90
25440;DHT22;13365;52.208;5.488;2023-11-21T15:12:08;11.70;99.90
25440;DHT22;13365;52.208;5.488;2023-11-21T15:14:44;11.70;99.90
25440;DHT22;13365;52.208;5.488;2023-11-21T15:17:11;11.70;99.90
25440;DHT22;13365;52.208;5.488;2023-11-21T15:19:41;11.60;99.90
25440;DHT22;13365;52.208;5.488;2023-11-21T15:22:07;11.60;99.90
25440;DHT22;13365;52.208;5.488;2023-11-21T15:24:33;11.50;99.90
25440;DHT22;13365;52.208;5.488;2023-11-21T15:26:58;11.50;99.90
25440;DHT22;13365;52.208;5.488;2023-11-21T15:29:25;11.50;99.90
25440;DHT22;13365;52.208;5.488;2023-11-21T15:31:51;11.50;99.90
25440;DHT22;13365;52.208;5.488;2023-11-21T15:34:21;11.40;99.90
25440;DHT22;13365;52.208;5.488;2023-11-21T15:36:47;11.30;99.90